sensor_id;sensor_type;location;lat;lon;timestamp;temperature;humidity
9915;DHT22;4996;48.746;9.174;2022-08-24T00:01:09;21.00;99.90
9915;DHT22;4996;48.746;9.174;2022-08-24T00:03:36;21.00;99.90
9915;DHT22;4996;48.746;9.174;2022-08-24T00:06:03;21.00;99.90
9915;DHT22;4996;48.746;9.174;2022-08-24T00:08:30;21.00;99.90
9915;DHT22;4996;48.746;9.174;2022-08-24T00:10:56;21.00;99.90
9915;DHT22;4996;48.746;9.174;2022-08-24T00:13:21;20.90;99.90
9915;DHT22;4996;48.746;9.174;2022-08-24T00:15:47;20.80;99.90
9915;DHT22;4996;48.746;9.174;2022-08-24T00:18:13;20.80;99.90
9915;DHT22;4996;48.746;9.174;2022-08-24T00:20:38;20.80;99.90
9915;DHT22;4996;48.746;9.174;2022-08-24T00:23:05;20.80;99.90
9915;DHT22;4996;48.746;9.174;2022-08-24T00:25:32;20.70;99.90
9915;DHT22;4996;48.746;9.174;2022-08-24T00:27:57;20.70;99.90
9915;DHT22;4996;48.746;9.174;2022-08-24T00:30:23;20.70;99.90
9915;DHT22;4996;48.746;9.174;2022-08-24T00:32:49;20.70;99.90
9915;DHT22;4996;48.746;9.174;2022-08-24T00:35:16;20.70;99.90
9915;DHT22;4996;48.746;9.174;2022-08-24T00:37:44;20.60;99.90
9915;DHT22;4996;48.746;9.174;2022-08-24T00:40:20;20.60;99.90
9915;DHT22;4996;48.746;9.174;2022-08-24T00:42:46;20.60;99.90
9915;DHT22;4996;48.746;9.174;2022-08-24T00:45:13;20.60;99.90
9915;DHT22;4996;48.746;9.174;2022-08-24T00:47:46;20.60;99.90
9915;DHT22;4996;48.746;9.174;2022-08-24T00:50:19;20.60;99.90
9915;DHT22;4996;48.746;9.174;2022-08-24T00:52:51;20.60;99.90
9915;DHT22;4996;48.746;9.174;2022-08-24T00:55:42;20.50;99.90
9915;DHT22;4996;48.746;9.174;2022-08-24T00:58:11;20.40;99.90
9915;DHT22;4996;48.746;9.174;2022-08-24T01:00:44;20.40;99.90
9915;DHT22;4996;48.746;9.174;2022-08-24T01:03:10;20.40;99.90
9915;DHT22;4996;48.746;9.174;2022-08-24T01:05:39;20.40;99.90
9915;DHT22;4996;48.746;9.174;2022-08-24T01:08:07;20.40;99.90
9915;DHT22;4996;48.746;9.174;2022-08-24T01:10:38;20.30;99.90
9915;DHT22;4996;48.746;9.174;2022-08-24T01:13:06;20.30;99.90
9915;DHT22;4996;48.746;9.174;2022-08-24T01:15:35;20.30;99.90
9915;DHT22;4996;48.746;9.174;2022-08-24T01:18:02;20.30;99.90
9915;DHT22;4996;48.746;9.174;2022-08-24T01:20:51;20.20;99.90
9915;DHT22;4996;48.746;9.174;2022-08-24T01:23:48;20.20;99.90
9915;DHT22;4996;48.746;9.174;2022-08-24T01:26:21;20.20;99.90
9915;DHT22;4996;48.746;9.174;2022-08-24T01:28:51;20.20;99.90
9915;DHT22;4996;48.746;9.174;2022-08-24T01:31:19;20.20;99.90
9915;DHT22;4996;48.746;9.174;2022-08-24T01:33:48;20.20;99.90
9915;DHT22;4996;48.746;9.174;2022-08-24T01:36:30;20.10;99.90
9915;DHT22;4996;48.746;9.174;2022-08-24T01:39:01;20.10;99.90
9915;DHT22;4996;48.746;9.174;2022-08-24T01:41:28;20.10;99.90
9915;DHT22;4996;48.746;9.174;2022-08-24T01:43:54;20.20;99.90
9915;DHT22;4996;48.746;9.174;2022-08-24T01:46:20;20.10;99.90
9915;DHT22;4996;48.746;9.174;2022-08-24T01:48:45;20.10;99.90
9915;DHT22;4996;48.746;9.174;2022-08-24T01:51:11;20.00;99.90
9915;DHT22;4996;48.746;9.174;2022-08-24T01:53:37;20.00;99.90
9915;DHT22;4996;48.746;9.174;2022-08-24T01:56:02;19.90;99.90
9915;DHT22;4996;48.746;9.174;2022-08-24T01:58:28;20.00;99.90
9915;DHT22;4996;48.746;9.174;2022-08-24T02:00:54;19.90;99.90
9915;DHT22;4996;48.746;9.174;2022-08-24T02:03:19;19.90;99.90
9915;DHT22;4996;48.746;9.174;2022-08-24T02:05:46;19.90;99.90
9915;DHT22;4996;48.746;9.174;2022-08-24T02:08:12;19.80;99.90
9915;DHT22;4996;48.746;9.174;2022-08-24T02:10:38;19.80;99.90
9915;DHT22;4996;48.746;9.174;2022-08-24T02:13:04;19.80;99.90
9915;DHT22;4996;48.746;9.174;2022-08-24T02:15:35;19.80;99.90
9915;DHT22;4996;48.746;9.174;2022-08-24T02:18:06;19.80;99.90
9915;DHT22;4996;48.746;9.174;2022-08-24T02:20:33;20.00;99.90
9915;DHT22;4996;48.746;9.174;2022-08-24T02:22:59;19.60;99.90
9915;DHT22;4996;48.746;9.174;2022-08-24T02:25:26;19.70;99.90
9915;DHT22;4996;48.746;9.174;2022-08-24T02:27:58;19.50;99.90
9915;DHT22;4996;48.746;9.174;2022-08-24T02:30:24;19.50;99.90
9915;DHT22;4996;48.746;9.174;2022-08-24T02:32:49;19.40;99.90
9915;DHT22;4996;48.746;9.174;2022-08-24T02:35:15;19.40;99.90
9915;DHT22;4996;48.746;9.174;2022-08-24T02:37:41;19.40;99.90
9915;DHT22;4996;48.746;9.174;2022-08-24T02:40:08;19.30;99.90
9915;DHT22;4996;48.746;9.174;2022-08-24T02:42:34;19.20;99.90
9915;DHT22;4996;48.746;9.174;2022-08-24T02:45:01;19.20;99.90
9915;DHT22;4996;48.746;9.174;2022-08-24T02:47:26;19.20;99.90
9915;DHT22;4996;48.746;9.174;2022-08-24T02:49:52;19.20;99.90
9915;DHT22;4996;48.746;9.174;2022-08-24T02:52:17;19.30;99.90
9915;DHT22;4996;48.746;9.174;2022-08-24T02:54:43;19.20;99.90
9915;DHT22;4996;48.746;9.174;2022-08-24T02:57:08;19.20;99.90
9915;DHT22;4996;48.746;9.174;2022-08-24T02:59:34;19.20;99.90
9915;DHT22;4996;48.746;9.174;2022-08-24T03:01:59;19.30;99.90
9915;DHT22;4996;48.746;9.174;2022-08-24T03:04:26;19.20;99.90
9915;DHT22;4996;48.746;9.174;2022-08-24T03:06:52;19.20;99.90
9915;DHT22;4996;48.746;9.174;2022-08-24T03:09:18;19.10;99.90
9915;DHT22;4996;48.746;9.174;2022-08-24T03:11:43;19.00;99.90
9915;DHT22;4996;48.746;9.174;2022-08-24T03:14:09;19.00;99.90
9915;DHT22;4996;48.746;9.174;2022-08-24T03:16:35;19.00;99.90
9915;DHT22;4996;48.746;9.174;2022-08-24T03:19:02;18.90;99.90
9915;DHT22;4996;48.746;9.174;2022-08-24T03:21:27;19.00;99.90
9915;DHT22;4996;48.746;9.174;2022-08-24T03:23:53;19.00;99.90
9915;DHT22;4996;48.746;9.174;2022-08-24T03:26:19;19.00;99.90
9915;DHT22;4996;48.746;9.174;2022-08-24T03:28:44;19.00;99.90
9915;DHT22;4996;48.746;9.174;2022-08-24T03:31:10;19.00;99.90
9915;DHT22;4996;48.746;9.174;2022-08-24T03:33:36;19.00;99.90
9915;DHT22;4996;48.746;9.174;2022-08-24T03:36:01;19.00;99.90
9915;DHT22;4996;48.746;9.174;2022-08-24T03:38:27;18.90;99.90
9915;DHT22;4996;48.746;9.174;2022-08-24T03:40:54;18.90;99.90
9915;DHT22;4996;48.746;9.174;2022-08-24T03:43:20;18.80;99.90
9915;DHT22;4996;48.746;9.174;2022-08-24T03:46:06;18.80;99.90
9915;DHT22;4996;48.746;9.174;2022-08-24T03:48:32;18.80;99.90
9915;DHT22;4996;48.746;9.174;2022-08-24T03:50:57;18.80;99.90
9915;DHT22;4996;48.746;9.174;2022-08-24T03:53:23;18.70;99.90
9915;DHT22;4996;48.746;9.174;2022-08-24T03:55:49;18.60;99.90
9915;DHT22;4996;48.746;9.174;2022-08-24T03:58:15;18.60;99.90
9915;DHT22;4996;48.746;9.174;2022-08-24T04:00:41;18.60;99.90
9915;DHT22;4996;48.746;9.174;2022-08-24T04:03:09;18.60;99.90
9915;DHT22;4996;48.746;9.174;2022-08-24T04:05:36;18.60;99.90
9915;DHT22;4996;48.746;9.174;2022-08-24T04:08:03;18.60;99.90
9915;DHT22;4996;48.746;9.174;2022-08-24T04:10:30;18.60;99.90
9915;DHT22;4996;48.746;9.174;2022-08-24T04:12:56;18.50;99.90
9915;DHT22;4996;48.746;9.174;2022-08-24T04:15:22;18.50;99.90
9915;DHT22;4996;48.746;9.174;2022-08-24T04:17:49;18.50;99.90
9915;DHT22;4996;48.746;9.174;2022-08-24T04:20:15;18.50;99.90
9915;DHT22;4996;48.746;9.174;2022-08-24T04:22:41;18.50;99.90
9915;DHT22;4996;48.746;9.174;2022-08-24T04:25:07;18.50;99.90
9915;DHT22;4996;48.746;9.174;2022-08-24T04:27:33;18.50;99.90
9915;DHT22;4996;48.746;9.174;2022-08-24T04:29:58;18.40;99.90
9915;DHT22;4996;48.746;9.174;2022-08-24T04:32:24;18.40;99.90
9915;DHT22;4996;48.746;9.174;2022-08-24T04:34:50;18.50;99.90
9915;DHT22;4996;48.746;9.174;2022-08-24T04:37:15;18.40;99.90
9915;DHT22;4996;48.746;9.174;2022-08-24T04:39:42;18.40;99.90
9915;DHT22;4996;48.746;9.174;2022-08-24T04:42:09;18.40;99.90
9915;DHT22;4996;48.746;9.174;2022-08-24T04:44:34;18.40;99.90
9915;DHT22;4996;48.746;9.174;2022-08-24T04:47:00;18.40;99.90
9915;DHT22;4996;48.746;9.174;2022-08-24T04:49:26;18.30;99.90
9915;DHT22;4996;48.746;9.174;2022-08-24T04:51:52;18.30;99.90
9915;DHT22;4996;48.746;9.174;2022-08-24T04:54:17;18.30;99.90
9915;DHT22;4996;48.746;9.174;2022-08-24T04:56:43;18.30;99.90
9915;DHT22;4996;48.746;9.174;2022-08-24T04:59:09;18.40;99.90
9915;DHT22;4996;48.746;9.174;2022-08-24T05:01:35;18.40;99.90
9915;DHT22;4996;48.746;9.174;2022-08-24T05:04:02;18.40;99.90
9915;DHT22;4996;48.746;9.174;2022-08-24T05:06:29;18.40;99.90
9915;DHT22;4996;48.746;9.174;2022-08-24T05:08:56;18.40;99.90
9915;DHT22;4996;48.746;9.174;2022-08-24T05:11:23;18.50;99.90
9915;DHT22;4996;48.746;9.174;2022-08-24T05:13:52;18.50;99.90
9915;DHT22;4996;48.746;9.174;2022-08-24T05:16:18;18.50;99.90
9915;DHT22;4996;48.746;9.174;2022-08-24T05:18:44;18.50;99.90
9915;DHT22;4996;48.746;9.174;2022-08-24T05:21:12;18.60;99.90
9915;DHT22;4996;48.746;9.174;2022-08-24T05:23:39;18.70;99.90
9915;DHT22;4996;48.746;9.174;2022-08-24T05:26:07;18.70;99.90
9915;DHT22;4996;48.746;9.174;2022-08-24T05:28:33;18.80;99.90
9915;DHT22;4996;48.746;9.174;2022-08-24T05:31:06;18.90;99.90
9915;DHT22;4996;48.746;9.174;2022-08-24T05:33:33;19.00;99.90
9915;DHT22;4996;48.746;9.174;2022-08-24T05:35:58;19.10;99.90
9915;DHT22;4996;48.746;9.174;2022-08-24T05:38:24;19.10;99.90
9915;DHT22;4996;48.746;9.174;2022-08-24T05:40:49;19.20;99.90
9915;DHT22;4996;48.746;9.174;2022-08-24T05:43:15;19.30;99.90
9915;DHT22;4996;48.746;9.174;2022-08-24T05:45:41;19.50;99.90
9915;DHT22;4996;48.746;9.174;2022-08-24T05:48:07;19.50;99.90
9915;DHT22;4996;48.746;9.174;2022-08-24T05:50:33;19.50;99.90
9915;DHT22;4996;48.746;9.174;2022-08-24T05:52:59;19.60;99.90
9915;DHT22;4996;48.746;9.174;2022-08-24T05:55:24;19.70;99.90
9915;DHT22;4996;48.746;9.174;2022-08-24T05:57:50;19.80;99.90
9915;DHT22;4996;48.746;9.174;2022-08-24T06:00:16;19.90;99.90
9915;DHT22;4996;48.746;9.174;2022-08-24T06:02:41;20.00;99.90
9915;DHT22;4996;48.746;9.174;2022-08-24T06:05:08;20.10;99.90
9915;DHT22;4996;48.746;9.174;2022-08-24T06:07:34;20.30;99.90
9915;DHT22;4996;48.746;9.174;2022-08-24T06:09:59;20.30;99.90
9915;DHT22;4996;48.746;9.174;2022-08-24T06:12:25;20.40;99.90
9915;DHT22;4996;48.746;9.174;2022-08-24T06:14:50;20.50;99.90
9915;DHT22;4996;48.746;9.174;2022-08-24T06:17:16;20.70;99.90
9915;DHT22;4996;48.746;9.174;2022-08-24T06:19:41;20.80;99.90
9915;DHT22;4996;48.746;9.174;2022-08-24T06:22:08;20.90;99.90
9915;DHT22;4996;48.746;9.174;2022-08-24T06:24:35;21.00;99.90
9915;DHT22;4996;48.746;9.174;2022-08-24T06:27:20;21.10;99.90
9915;DHT22;4996;48.746;9.174;2022-08-24T06:29:49;21.30;99.90
9915;DHT22;4996;48.746;9.174;2022-08-24T06:32:15;21.40;99.90
9915;DHT22;4996;48.746;9.174;2022-08-24T06:34:41;21.50;99.90
9915;DHT22;4996;48.746;9.174;2022-08-24T06:37:06;21.60;99.90
9915;DHT22;4996;48.746;9.174;2022-08-24T06:39:32;21.70;99.90
9915;DHT22;4996;48.746;9.174;2022-08-24T06:41:57;21.90;99.90
9915;DHT22;4996;48.746;9.174;2022-08-24T06:44:23;22.00;99.90
9915;DHT22;4996;48.746;9.174;2022-08-24T06:46:49;22.10;99.90
9915;DHT22;4996;48.746;9.174;2022-08-24T06:49:17;22.20;99.90
9915;DHT22;4996;48.746;9.174;2022-08-24T06:51:42;22.30;99.90
9915;DHT22;4996;48.746;9.174;2022-08-24T06:54:08;22.50;99.90
9915;DHT22;4996;48.746;9.174;2022-08-24T06:56:35;22.60;99.90
9915;DHT22;4996;48.746;9.174;2022-08-24T06:59:01;22.60;99.90
9915;DHT22;4996;48.746;9.174;2022-08-24T07:01:28;22.80;99.90
9915;DHT22;4996;48.746;9.174;2022-08-24T07:03:54;22.80;99.90
9915;DHT22;4996;48.746;9.174;2022-08-24T07:06:21;23.00;99.90
9915;DHT22;4996;48.746;9.174;2022-08-24T07:08:46;23.00;99.90
9915;DHT22;4996;48.746;9.174;2022-08-24T07:11:13;23.00;99.90
9915;DHT22;4996;48.746;9.174;2022-08-24T07:13:39;23.10;99.90
9915;DHT22;4996;48.746;9.174;2022-08-24T07:16:05;23.20;99.90
9915;DHT22;4996;48.746;9.174;2022-08-24T07:18:31;23.40;99.90
9915;DHT22;4996;48.746;9.174;2022-08-24T07:20:59;23.40;99.90
9915;DHT22;4996;48.746;9.174;2022-08-24T07:23:26;23.60;99.90
9915;DHT22;4996;48.746;9.174;2022-08-24T07:25:52;23.70;99.90
9915;DHT22;4996;48.746;9.174;2022-08-24T07:28:18;23.90;99.90
9915;DHT22;4996;48.746;9.174;2022-08-24T07:30:43;24.10;99.90
9915;DHT22;4996;48.746;9.174;2022-08-24T07:33:09;24.20;99.90
9915;DHT22;4996;48.746;9.174;2022-08-24T07:35:35;24.30;99.90
9915;DHT22;4996;48.746;9.174;2022-08-24T07:38:02;24.40;99.90
9915;DHT22;4996;48.746;9.174;2022-08-24T07:40:29;24.60;99.90
9915;DHT22;4996;48.746;9.174;2022-08-24T07:42:56;24.80;99.90
9915;DHT22;4996;48.746;9.174;2022-08-24T07:45:22;25.00;99.90
9915;DHT22;4996;48.746;9.174;2022-08-24T07:47:49;25.10;99.90
9915;DHT22;4996;48.746;9.174;2022-08-24T07:50:16;25.10;99.90
9915;DHT22;4996;48.746;9.174;2022-08-24T07:52:43;25.10;99.90
9915;DHT22;4996;48.746;9.174;2022-08-24T07:55:09;25.20;99.90
9915;DHT22;4996;48.746;9.174;2022-08-24T07:57:37;25.40;99.90
9915;DHT22;4996;48.746;9.174;2022-08-24T08:00:05;25.40;99.90
9915;DHT22;4996;48.746;9.174;2022-08-24T08:02:31;25.70;99.90
9915;DHT22;4996;48.746;9.174;2022-08-24T08:04:58;25.80;99.90
9915;DHT22;4996;48.746;9.174;2022-08-24T08:07:23;25.80;99.90
9915;DHT22;4996;48.746;9.174;2022-08-24T08:09:49;26.10;99.90
9915;DHT22;4996;48.746;9.174;2022-08-24T08:12:15;26.20;99.90
9915;DHT22;4996;48.746;9.174;2022-08-24T08:14:40;26.40;97.70
9915;DHT22;4996;48.746;9.174;2022-08-24T08:17:06;26.50;95.40
9915;DHT22;4996;48.746;9.174;2022-08-24T08:19:32;26.80;94.80
9915;DHT22;4996;48.746;9.174;2022-08-24T08:21:58;26.90;94.10
9915;DHT22;4996;48.746;9.174;2022-08-24T08:24:43;26.90;92.80
9915;DHT22;4996;48.746;9.174;2022-08-24T08:27:10;26.90;93.60
9915;DHT22;4996;48.746;9.174;2022-08-24T08:29:37;27.00;92.80
9915;DHT22;4996;48.746;9.174;2022-08-24T08:32:07;27.10;91.90
9915;DHT22;4996;48.746;9.174;2022-08-24T08:34:34;27.30;91.10
9915;DHT22;4996;48.746;9.174;2022-08-24T08:37:00;27.60;90.80
9915;DHT22;4996;48.746;9.174;2022-08-24T08:39:27;27.80;90.90
9915;DHT22;4996;48.746;9.174;2022-08-24T08:50:38;28.70;85.30
9915;DHT22;4996;48.746;9.174;2022-08-24T08:59:09;29.00;85.20
9915;DHT22;4996;48.746;9.174;2022-08-24T09:02:17;28.60;79.50
9915;DHT22;4996;48.746;9.174;2022-08-24T09:05:21;28.70;82.40
9915;DHT22;4996;48.746;9.174;2022-08-24T09:11:03;28.70;82.10
9915;DHT22;4996;48.746;9.174;2022-08-24T09:16:10;29.20;80.70
9915;DHT22;4996;48.746;9.174;2022-08-24T09:22:13;28.70;80.70
9915;DHT22;4996;48.746;9.174;2022-08-24T09:24:56;29.10;80.80
9915;DHT22;4996;48.746;9.174;2022-08-24T09:30:26;29.60;80.50
9915;DHT22;4996;48.746;9.174;2022-08-24T09:33:06;29.70;80.20
9915;DHT22;4996;48.746;9.174;2022-08-24T09:36:01;29.70;79.80
9915;DHT22;4996;48.746;9.174;2022-08-24T09:38:55;29.60;79.70
9915;DHT22;4996;48.746;9.174;2022-08-24T09:44:22;29.70;78.70
9915;DHT22;4996;48.746;9.174;2022-08-24T09:47:08;29.90;79.40
9915;DHT22;4996;48.746;9.174;2022-08-24T09:49:56;30.00;76.30
9915;DHT22;4996;48.746;9.174;2022-08-24T09:58:30;30.90;74.30
9915;DHT22;4996;48.746;9.174;2022-08-24T10:03:54;30.60;72.70
9915;DHT22;4996;48.746;9.174;2022-08-24T10:12:22;29.80;74.10
9915;DHT22;4996;48.746;9.174;2022-08-24T10:17:43;29.70;74.50
9915;DHT22;4996;48.746;9.174;2022-08-24T10:20:23;29.60;75.10
9915;DHT22;4996;48.746;9.174;2022-08-24T10:28:43;29.90;75.10
9915;DHT22;4996;48.746;9.174;2022-08-24T10:31:27;29.80;74.30
9915;DHT22;4996;48.746;9.174;2022-08-24T10:39:20;29.50;75.00
9915;DHT22;4996;48.746;9.174;2022-08-24T10:42:36;29.60;74.70
9915;DHT22;4996;48.746;9.174;2022-08-24T10:50:58;30.00;75.30
9915;DHT22;4996;48.746;9.174;2022-08-24T10:53:30;30.00;75.60
9915;DHT22;4996;48.746;9.174;2022-08-24T10:56:07;29.80;75.90
9915;DHT22;4996;48.746;9.174;2022-08-24T10:58:49;30.10;75.20
9915;DHT22;4996;48.746;9.174;2022-08-24T11:01:25;29.80;75.10
9915;DHT22;4996;48.746;9.174;2022-08-24T11:06:24;29.60;74.00
9915;DHT22;4996;48.746;9.174;2022-08-24T11:08:53;30.10;73.40
9915;DHT22;4996;48.746;9.174;2022-08-24T11:11:33;30.30;73.60
9915;DHT22;4996;48.746;9.174;2022-08-24T11:14:03;30.70;73.10
9915;DHT22;4996;48.746;9.174;2022-08-24T11:16:39;30.70;72.80
9915;DHT22;4996;48.746;9.174;2022-08-24T11:19:13;31.10;72.40
9915;DHT22;4996;48.746;9.174;2022-08-24T11:21:44;31.40;72.40
9915;DHT22;4996;48.746;9.174;2022-08-24T11:26:58;32.30;72.10
9915;DHT22;4996;48.746;9.174;2022-08-24T11:32:37;33.30;70.20
9915;DHT22;4996;48.746;9.174;2022-08-24T11:37:37;33.00;67.40
9915;DHT22;4996;48.746;9.174;2022-08-24T11:40:05;32.40;67.30
9915;DHT22;4996;48.746;9.174;2022-08-24T11:45:23;33.90;67.50
9915;DHT22;4996;48.746;9.174;2022-08-24T11:50:57;35.10;62.50
9915;DHT22;4996;48.746;9.174;2022-08-24T11:53:39;35.90;62.40
9915;DHT22;4996;48.746;9.174;2022-08-24T12:01:42;36.30;58.00
9915;DHT22;4996;48.746;9.174;2022-08-24T12:04:34;35.30;58.30
9915;DHT22;4996;48.746;9.174;2022-08-24T12:07:11;34.70;58.30
9915;DHT22;4996;48.746;9.174;2022-08-24T12:12:41;34.70;58.10
9915;DHT22;4996;48.746;9.174;2022-08-24T12:18:08;36.40;57.60
9915;DHT22;4996;48.746;9.174;2022-08-24T12:20:41;36.90;57.10
9915;DHT22;4996;48.746;9.174;2022-08-24T12:23:13;36.20;56.90
9915;DHT22;4996;48.746;9.174;2022-08-24T12:25:43;36.30;57.50
9915;DHT22;4996;48.746;9.174;2022-08-24T12:31:07;36.80;56.10
9915;DHT22;4996;48.746;9.174;2022-08-24T12:33:35;36.90;56.60
9915;DHT22;4996;48.746;9.174;2022-08-24T12:36:17;37.60;55.70
9915;DHT22;4996;48.746;9.174;2022-08-24T12:38:51;37.00;54.60
9915;DHT22;4996;48.746;9.174;2022-08-24T12:41:25;36.60;55.60
9915;DHT22;4996;48.746;9.174;2022-08-24T12:44:05;35.90;55.70
9915;DHT22;4996;48.746;9.174;2022-08-24T12:46:35;35.80;55.60
9915;DHT22;4996;48.746;9.174;2022-08-24T12:49:13;36.20;55.00
9915;DHT22;4996;48.746;9.174;2022-08-24T12:52:12;36.60;53.30
9915;DHT22;4996;48.746;9.174;2022-08-24T12:55:18;35.40;53.70
9915;DHT22;4996;48.746;9.174;2022-08-24T13:03:04;37.50;53.00
9915;DHT22;4996;48.746;9.174;2022-08-24T13:05:40;37.10;53.90
9915;DHT22;4996;48.746;9.174;2022-08-24T13:08:13;36.30;53.60
9915;DHT22;4996;48.746;9.174;2022-08-24T13:10:52;36.90;53.40
9915;DHT22;4996;48.746;9.174;2022-08-24T13:13:43;37.20;52.80
9915;DHT22;4996;48.746;9.174;2022-08-24T13:16:10;37.50;52.60
9915;DHT22;4996;48.746;9.174;2022-08-24T13:18:49;36.20;53.10
9915;DHT22;4996;48.746;9.174;2022-08-24T13:21:34;34.90;53.10
9915;DHT22;4996;48.746;9.174;2022-08-24T13:27:04;35.00;53.10
9915;DHT22;4996;48.746;9.174;2022-08-24T13:30:03;34.40;53.50
9915;DHT22;4996;48.746;9.174;2022-08-24T13:34:58;33.20;55.60
9915;DHT22;4996;48.746;9.174;2022-08-24T13:37:26;33.00;54.10
9915;DHT22;4996;48.746;9.174;2022-08-24T13:40:14;32.80;54.10
9915;DHT22;4996;48.746;9.174;2022-08-24T13:43:00;32.50;55.40
9915;DHT22;4996;48.746;9.174;2022-08-24T13:45:44;32.30;55.40
9915;DHT22;4996;48.746;9.174;2022-08-24T13:48:32;32.10;55.90
9915;DHT22;4996;48.746;9.174;2022-08-24T13:51:15;32.00;57.40
9915;DHT22;4996;48.746;9.174;2022-08-24T13:54:04;32.10;57.00
9915;DHT22;4996;48.746;9.174;2022-08-24T14:00:12;31.50;57.00
9915;DHT22;4996;48.746;9.174;2022-08-24T14:02:23;31.20;57.30
9915;DHT22;4996;48.746;9.174;2022-08-24T14:05:14;30.60;58.10
9915;DHT22;4996;48.746;9.174;2022-08-24T14:08:10;30.30;56.80
9915;DHT22;4996;48.746;9.174;2022-08-24T14:11:01;30.10;56.90
9915;DHT22;4996;48.746;9.174;2022-08-24T14:13:59;30.00;57.50
9915;DHT22;4996;48.746;9.174;2022-08-24T14:16:37;29.80;56.60
9915;DHT22;4996;48.746;9.174;2022-08-24T14:24:52;29.70;59.90
9915;DHT22;4996;48.746;9.174;2022-08-24T14:27:45;29.70;61.00
9915;DHT22;4996;48.746;9.174;2022-08-24T14:33:04;29.70;60.20
9915;DHT22;4996;48.746;9.174;2022-08-24T14:36:18;29.70;61.10
9915;DHT22;4996;48.746;9.174;2022-08-24T14:44:10;29.60;63.90
9915;DHT22;4996;48.746;9.174;2022-08-24T14:46:47;29.60;64.30
9915;DHT22;4996;48.746;9.174;2022-08-24T14:49:25;29.60;65.20
9915;DHT22;4996;48.746;9.174;2022-08-24T14:55:06;29.50;64.90
9915;DHT22;4996;48.746;9.174;2022-08-24T14:58:10;29.50;64.80
9915;DHT22;4996;48.746;9.174;2022-08-24T15:00:53;29.50;65.80
9915;DHT22;4996;48.746;9.174;2022-08-24T15:06:39;29.60;66.90
9915;DHT22;4996;48.746;9.174;2022-08-24T15:09:24;29.60;67.00
9915;DHT22;4996;48.746;9.174;2022-08-24T15:11:53;29.70;67.20
9915;DHT22;4996;48.746;9.174;2022-08-24T15:14:40;29.60;67.50
9915;DHT22;4996;48.746;9.174;2022-08-24T15:17:16;29.40;67.40
9915;DHT22;4996;48.746;9.174;2022-08-24T15:20:11;29.60;67.80
9915;DHT22;4996;48.746;9.174;2022-08-24T15:22:45;29.50;68.80
9915;DHT22;4996;48.746;9.174;2022-08-24T15:25:38;29.60;69.00
9915;DHT22;4996;48.746;9.174;2022-08-24T15:31:10;29.70;69.40
9915;DHT22;4996;48.746;9.174;2022-08-24T15:33:51;29.60;69.00
9915;DHT22;4996;48.746;9.174;2022-08-24T15:36:18;29.60;70.00
9915;DHT22;4996;48.746;9.174;2022-08-24T15:38:44;29.40;70.60
9915;DHT22;4996;48.746;9.174;2022-08-24T15:41:22;29.30;71.10
9915;DHT22;4996;48.746;9.174;2022-08-24T15:46:42;29.30;71.80
9915;DHT22;4996;48.746;9.174;2022-08-24T15:49:17;29.40;72.00
9915;DHT22;4996;48.746;9.174;2022-08-24T15:51:50;29.50;72.30
9915;DHT22;4996;48.746;9.174;2022-08-24T15:59:46;29.50;73.20
9915;DHT22;4996;48.746;9.174;2022-08-24T16:05:08;29.30;73.50
9915;DHT22;4996;48.746;9.174;2022-08-24T16:10:50;29.50;73.70
9915;DHT22;4996;48.746;9.174;2022-08-24T16:15:57;29.40;74.70
9915;DHT22;4996;48.746;9.174;2022-08-24T16:18:26;29.00;75.10
9915;DHT22;4996;48.746;9.174;2022-08-24T16:20:56;29.00;75.40
9915;DHT22;4996;48.746;9.174;2022-08-24T16:23:29;28.80;75.90
9915;DHT22;4996;48.746;9.174;2022-08-24T16:26:25;28.90;75.50
9915;DHT22;4996;48.746;9.174;2022-08-24T16:28:52;28.90;75.60
9915;DHT22;4996;48.746;9.174;2022-08-24T16:31:48;28.70;75.40
9915;DHT22;4996;48.746;9.174;2022-08-24T16:34:28;28.80;76.00
9915;DHT22;4996;48.746;9.174;2022-08-24T16:36:55;28.70;76.30
9915;DHT22;4996;48.746;9.174;2022-08-24T16:39:21;28.80;76.70
9915;DHT22;4996;48.746;9.174;2022-08-24T16:41:46;28.70;77.00
9915;DHT22;4996;48.746;9.174;2022-08-24T16:44:14;28.60;77.60
9915;DHT22;4996;48.746;9.174;2022-08-24T16:46:40;28.60;77.90
9915;DHT22;4996;48.746;9.174;2022-08-24T16:49:06;28.40;78.10
9915;DHT22;4996;48.746;9.174;2022-08-24T16:51:31;28.60;78.50
9915;DHT22;4996;48.746;9.174;2022-08-24T16:53:57;28.60;78.50
9915;DHT22;4996;48.746;9.174;2022-08-24T16:56:23;28.60;79.20
9915;DHT22;4996;48.746;9.174;2022-08-24T16:58:49;28.50;78.80
9915;DHT22;4996;48.746;9.174;2022-08-24T17:01:15;28.50;79.10
9915;DHT22;4996;48.746;9.174;2022-08-24T17:03:41;28.50;79.30
9915;DHT22;4996;48.746;9.174;2022-08-24T17:06:07;28.60;79.60
9915;DHT22;4996;48.746;9.174;2022-08-24T17:08:37;28.50;80.00
9915;DHT22;4996;48.746;9.174;2022-08-24T17:11:03;28.50;80.20
9915;DHT22;4996;48.746;9.174;2022-08-24T17:13:29;28.40;80.30
9915;DHT22;4996;48.746;9.174;2022-08-24T17:15:55;28.30;80.70
9915;DHT22;4996;48.746;9.174;2022-08-24T17:18:21;28.10;81.40
9915;DHT22;4996;48.746;9.174;2022-08-24T17:20:46;28.30;81.70
9915;DHT22;4996;48.746;9.174;2022-08-24T17:23:12;28.30;81.60
9915;DHT22;4996;48.746;9.174;2022-08-24T17:25:38;28.30;82.00
9915;DHT22;4996;48.746;9.174;2022-08-24T17:28:09;28.10;81.90
9915;DHT22;4996;48.746;9.174;2022-08-24T17:30:35;28.00;82.40
9915;DHT22;4996;48.746;9.174;2022-08-24T17:33:01;28.10;82.40
9915;DHT22;4996;48.746;9.174;2022-08-24T17:35:26;27.90;82.40
9915;DHT22;4996;48.746;9.174;2022-08-24T17:37:52;27.90;83.10
9915;DHT22;4996;48.746;9.174;2022-08-24T17:40:21;27.90;83.20
9915;DHT22;4996;48.746;9.174;2022-08-24T17:42:48;27.70;83.50
9915;DHT22;4996;48.746;9.174;2022-08-24T17:45:14;27.80;83.90
9915;DHT22;4996;48.746;9.174;2022-08-24T17:47:41;27.80;84.00
9915;DHT22;4996;48.746;9.174;2022-08-24T17:50:12;27.70;84.40
9915;DHT22;4996;48.746;9.174;2022-08-24T17:52:39;27.60;84.60
9915;DHT22;4996;48.746;9.174;2022-08-24T17:55:09;27.50;85.10
9915;DHT22;4996;48.746;9.174;2022-08-24T17:57:35;27.50;85.20
9915;DHT22;4996;48.746;9.174;2022-08-24T18:00:03;27.50;85.60
9915;DHT22;4996;48.746;9.174;2022-08-24T18:02:29;27.40;86.00
9915;DHT22;4996;48.746;9.174;2022-08-24T18:04:55;27.40;86.50
9915;DHT22;4996;48.746;9.174;2022-08-24T18:07:22;27.40;86.40
9915;DHT22;4996;48.746;9.174;2022-08-24T18:09:56;27.40;86.70
9915;DHT22;4996;48.746;9.174;2022-08-24T18:12:25;27.30;87.00
9915;DHT22;4996;48.746;9.174;2022-08-24T18:14:51;27.30;87.50
9915;DHT22;4996;48.746;9.174;2022-08-24T18:17:20;27.30;87.80
9915;DHT22;4996;48.746;9.174;2022-08-24T18:19:48;27.20;88.30
9915;DHT22;4996;48.746;9.174;2022-08-24T18:22:15;27.10;88.80
9915;DHT22;4996;48.746;9.174;2022-08-24T18:24:41;27.00;89.40
9915;DHT22;4996;48.746;9.174;2022-08-24T18:27:10;26.90;90.00
9915;DHT22;4996;48.746;9.174;2022-08-24T18:29:38;26.90;90.30
9915;DHT22;4996;48.746;9.174;2022-08-24T18:32:04;26.90;90.50
9915;DHT22;4996;48.746;9.174;2022-08-24T18:34:30;26.80;90.90
9915;DHT22;4996;48.746;9.174;2022-08-24T18:36:56;26.60;91.40
9915;DHT22;4996;48.746;9.174;2022-08-24T18:39:21;26.60;91.70
9915;DHT22;4996;48.746;9.174;2022-08-24T18:41:47;26.50;92.00
9915;DHT22;4996;48.746;9.174;2022-08-24T18:44:17;26.40;92.30
9915;DHT22;4996;48.746;9.174;2022-08-24T18:46:43;26.60;92.70
9915;DHT22;4996;48.746;9.174;2022-08-24T18:49:08;26.40;92.90
9915;DHT22;4996;48.746;9.174;2022-08-24T18:51:34;26.30;93.20
9915;DHT22;4996;48.746;9.174;2022-08-24T18:54:07;26.30;93.50